Time;durP1;ratioP1;P1;durP2;ratioP2;P2;SDS_P1;SDS_P2;PMS_P1;PMS_P2;Temp;Humidity;BMP_temperature;BMP_pressure;BME280_temperature;BME280_humidity;BME280_pressure;Samples;Min_cycle;Max_cycle;Signal;HPM_P1;HPM_P2
2021/06/14 00:00:10;;;;;;;1999.90;999.90;;;;;;;14.19;65.20;93372.34;5080942;28;20024;-39
2021/06/14 00:02:37;;;;;;;1999.90;999.90;;;;;;;14.16;66.55;93381.84;5072829;28;20413;-39
2021/06/14 00:05:04;;;;;;;1999.90;999.90;;;;;;;14.12;66.15;93385.03;5072263;28;20032;-40
2021/06/14 00:07:29;;;;;;;1999.90;999.90;;;;;;;14.12;67.26;93390.56;5072235;28;20028;-39
2021/06/14 00:09:54;;;;;;;1999.90;999.90;;;;;;;14.06;68.24;93392.88;5072580;28;20077;-41
2021/06/14 00:12:23;;;;;;;1999.90;999.90;;;;;;;14.09;67.63;93388.22;5072919;28;20401;-40
2021/06/14 00:14:50;;;;;;;1999.90;999.90;;;;;;;13.91;69.55;93389.53;5072308;28;20032;-41
2021/06/14 00:17:15;;;;;;;1999.90;999.90;;;;;;;13.92;69.46;93386.22;5072443;28;20032;-41
2021/06/14 00:19:41;;;;;;;1999.90;999.90;;;;;;;14.01;68.76;93384.81;5072746;28;20028;-41
2021/06/14 00:22:06;;;;;;;1999.90;999.90;;;;;;;14.02;68.83;93389.03;5072671;28;20502;-39
2021/06/14 00:24:32;;;;;;;1999.90;999.90;;;;;;;13.94;69.51;93382.84;5071792;28;20016;-38
2021/06/14 00:26:57;;;;;;;1999.90;999.90;;;;;;;13.86;69.62;93376.66;5072578;28;20032;-39
2021/06/14 00:29:22;;;;;;;1999.90;999.90;;;;;;;13.88;70.02;93377.53;5072424;28;20028;-39
2021/06/14 00:31:48;;;;;;;1999.90;999.90;;;;;;;13.87;69.77;93373.31;5077875;28;20426;-39
2021/06/14 00:34:13;;;;;;;1999.90;999.90;;;;;;;13.80;70.06;93368.56;5081560;28;20732;-40
2021/06/14 00:36:39;;;;;;;1999.90;999.90;;;;;;;13.80;70.95;93373.38;5081625;28;20576;-40
2021/06/14 00:39:04;;;;;;;1999.90;999.90;;;;;;;13.87;71.42;93373.31;5082570;28;20516;-40
2021/06/14 00:41:30;;;;;;;1999.90;999.90;;;;;;;13.77;71.23;93360.66;5081675;28;20035;-40
2021/06/14 00:43:55;;;;;;;1999.90;999.90;;;;;;;13.81;70.52;93364.50;5081471;28;20028;-41
2021/06/14 00:46:21;;;;;;;1999.90;999.90;;;;;;;13.71;71.60;93366.44;5080959;28;20024;-41
2021/06/14 00:48:46;;;;;;;1999.90;999.90;;;;;;;13.44;71.95;93352.50;5082503;28;20123;-40
2021/06/14 00:51:12;;;;;;;1999.90;999.90;;;;;;;13.19;72.32;93357.34;5080549;28;20027;-40
2021/06/14 00:53:39;;;;;;;1999.90;999.90;;;;;;;13.15;73.62;93365.31;5081681;28;20465;-39
2021/06/14 00:56:12;;;;;;;1999.90;999.90;;;;;;;12.98;73.98;93345.84;5082263;28;20028;-39
2021/06/14 00:58:39;;;;;;;1999.90;999.90;;;;;;;13.04;74.81;93365.75;5081805;28;20040;-40
2021/06/14 01:01:05;;;;;;;1999.90;999.90;;;;;;;13.07;75.08;93364.66;5080424;28;20020;-40
2021/06/14 01:03:31;;;;;;;1999.90;999.90;;;;;;;13.12;74.25;93352.63;5081874;28;20404;-40
2021/06/14 01:05:59;;;;;;;1999.90;999.90;;;;;;;13.26;74.10;93362.09;5081697;28;20029;-40
2021/06/14 01:08:26;;;;;;;1999.90;999.90;;;;;;;13.30;73.99;93365.19;5080319;28;20040;-40
2021/06/14 01:10:52;;;;;;;1999.90;999.90;;;;;;;13.31;73.93;93363.91;5081921;28;20023;-40
2021/06/14 01:13:38;;;;;;;1999.90;999.90;;;;;;;13.30;73.05;93367.22;5079979;28;20020;-39
2021/06/14 01:16:22;;;;;;;1999.90;999.90;;;;;;;13.17;73.44;93359.19;5082115;28;20032;-40
2021/06/14 01:18:50;;;;;;;1999.90;999.90;;;;;;;13.19;73.79;93351.06;5082103;28;20118;-40
2021/06/14 01:21:32;;;;;;;1999.90;999.90;;;;;;;13.26;73.78;93358.56;5079610;28;20036;-41
2021/06/14 01:24:12;;;;;;;1999.90;999.90;;;;;;;13.21;73.94;93357.50;5082538;28;20024;-41
2021/06/14 01:26:45;;;;;;;1999.90;999.90;;;;;;;13.20;72.93;93347.72;5080088;28;20524;-41
2021/06/14 01:29:12;;;;;;;1999.90;999.90;;;;;;;13.25;71.92;93352.31;5078906;28;20024;-42
2021/06/14 01:31:38;;;;;;;1999.90;999.90;;;;;;;13.14;73.28;93354.81;5078708;28;20020;-41
2021/06/14 01:34:04;;;;;;;1999.90;999.90;;;;;;;13.03;73.35;93360.78;5082850;28;20024;-42
2021/06/14 01:36:33;;;;;;;1999.90;999.90;;;;;;;13.00;73.85;93354.34;5078703;28;20024;-41
2021/06/14 01:38:58;;;;;;;1999.90;999.90;;;;;;;12.85;74.30;93352.44;5081582;28;20023;-40
2021/06/14 01:41:26;;;;;;;1999.90;999.90;;;;;;;12.83;74.67;93351.53;5080320;28;20036;-40
2021/06/14 01:43:52;;;;;;;1999.90;999.90;;;;;;;12.78;74.98;93360.78;5080667;28;20028;-39
2021/06/14 01:46:24;;;;;;;1999.90;999.90;;;;;;;12.64;74.95;93332.66;5078401;28;20543;-40
2021/06/14 01:48:51;;;;;;;1999.90;999.90;;;;;;;12.77;75.59;93367.63;5080081;28;20024;-40
2021/06/14 01:51:20;;;;;;;1999.90;999.90;;;;;;;12.84;75.36;93356.50;5080173;28;20027;-40
2021/06/14 01:56:41;;;;;;;1999.90;999.90;;;;;;;13.06;75.20;93354.16;5080964;28;20551;-39
2021/06/14 01:59:09;;;;;;;1999.90;999.90;;;;;;;13.02;74.60;93351.72;5079710;28;20043;-40
2021/06/14 02:01:37;;;;;;;1999.90;999.90;;;;;;;13.08;74.37;93352.25;5077681;28;20111;-41
2021/06/14 02:04:03;;;;;;;1999.90;999.90;;;;;;;13.10;74.11;93349.69;5089418;28;20028;-42
2021/06/14 02:06:35;;;;;;;1999.90;999.90;;;;;;;13.16;73.48;93347.41;5085438;28;20050;-43
2021/06/14 02:09:05;;;;;;;1999.90;999.90;;;;;;;13.18;73.72;93346.81;5069078;28;20025;-40
2021/06/14 02:11:30;;;;;;;1999.90;999.90;;;;;;;13.02;75.08;93340.66;5079045;28;20029;-40
2021/06/14 02:13:57;;;;;;;1999.90;999.90;;;;;;;12.98;75.22;93348.63;5071359;28;20027;-39
2021/06/14 02:16:23;;;;;;;1999.90;999.90;;;;;;;13.04;74.22;93349.13;5078985;28;20398;-41
2021/06/14 02:18:48;;;;;;;1999.90;999.90;;;;;;;13.04;74.29;93346.34;5087671;28;20035;-39
2021/06/14 02:21:14;;;;;;;1999.90;999.90;;;;;;;13.01;74.41;93341.97;5090380;28;20035;-39
2021/06/14 02:23:40;;;;;;;1999.90;999.90;;;;;;;12.92;75.12;93340.56;5088892;28;20022;-39
2021/06/14 02:26:05;;;;;;;1999.90;999.90;;;;;;;12.98;74.99;93345.13;5090155;28;20096;-39
2021/06/14 02:28:31;;;;;;;1999.90;999.90;;;;;;;13.09;74.42;93350.22;5089389;28;20023;-39
2021/06/14 02:30:56;;;;;;;1999.90;999.90;;;;;;;13.01;74.67;93339.19;5089821;28;20024;-38
2021/06/14 02:33:22;;;;;;;1999.90;999.90;;;;;;;12.84;75.09;93339.16;5090297;28;20035;-39
2021/06/14 02:35:47;;;;;;;1999.90;999.90;;;;;;;12.88;74.35;93339.47;5070087;28;20040;-39
2021/06/14 02:38:13;;;;;;;1999.90;999.90;;;;;;;12.76;74.75;93344.72;5068511;28;20533;-37
2021/06/14 02:40:40;;;;;;;1999.90;999.90;;;;;;;12.72;74.51;93338.84;5068982;28;20040;-39
2021/06/14 02:43:07;;;;;;;1999.90;999.90;;;;;;;12.60;74.60;93326.78;5080477;28;20514;-38
2021/06/14 02:45:33;;;;;;;1999.90;999.90;;;;;;;12.56;74.45;93328.47;5089943;28;20517;-38
2021/06/14 02:48:00;;;;;;;1999.90;999.90;;;;;;;12.59;74.04;93327.31;5088456;28;20081;-39
2021/06/14 02:50:27;;;;;;;1999.90;999.90;;;;;;;12.44;74.57;93324.66;5088093;28;20412;-38
2021/06/14 02:52:53;;;;;;;1999.90;999.90;;;;;;;12.30;74.77;93334.53;5088980;28;20461;-38
2021/06/14 02:55:42;;;;;;;1999.90;999.90;;;;;;;12.41;74.81;93331.34;5088209;28;20197;-38
2021/06/14 02:58:07;;;;;;;;;;;;;;;12.32;74.61;93335.44;5068369;28;20044;-38
2021/06/14 03:00:33;;;;;;;1999.90;999.90;;;;;;;12.15;75.52;93330.53;5088474;28;19908;-38
2021/06/14 03:03:00;;;;;;;1999.90;999.90;;;;;;;12.07;75.65;93332.63;5084670;28;20032;-38
2021/06/14 03:05:26;;;;;;;1999.90;999.90;;;;;;;11.97;75.63;93331.75;5080006;28;20028;-39
2021/06/14 03:07:55;;;;;;;1999.90;999.90;;;;;;;12.04;75.38;93328.19;5077874;28;20024;-38
2021/06/14 03:10:21;;;;;;;1999.90;999.90;;;;;;;12.13;74.58;93338.69;5077554;28;20463;-39
2021/06/14 03:12:47;;;;;;;1999.90;999.90;;;;;;;11.85;75.14;93336.22;5086408;28;20036;-42
2021/06/14 03:15:12;;;;;;;1999.90;999.90;;;;;;;11.87;75.58;93324.59;5088073;28;20064;-37
2021/06/14 03:17:39;;;;;;;1999.90;999.90;;;;;;;11.86;75.70;93329.41;5086034;28;20038;-39
2021/06/14 03:20:06;;;;;;;1999.90;999.90;;;;;;;11.89;75.58;93339.34;5068193;28;20033;-39
2021/06/14 03:22:31;;;;;;;1999.90;999.90;;;;;;;11.91;75.29;93336.03;5070584;28;20032;-39
2021/06/14 03:24:57;;;;;;;1999.90;999.90;;;;;;;11.99;74.87;93331.94;5089343;28;20040;-40
2021/06/14 03:27:23;;;;;;;1999.90;999.90;;;;;;;11.73;76.03;93328.91;5087928;28;20078;-38
2021/06/14 03:29:53;;;;;;;1999.90;999.90;;;;;;;11.86;75.42;93328.66;5086966;28;20024;-39
2021/06/14 03:32:19;;;;;;;1999.90;999.90;;;;;;;11.82;75.04;93334.59;5067238;28;20035;-39
2021/06/14 03:34:44;;;;;;;1999.90;999.90;;;;;;;11.72;75.30;93328.16;5068811;28;20025;-38
2021/06/14 03:37:10;;;;;;;1999.90;999.90;;;;;;;11.59;75.82;93317.31;5067822;28;20115;-39
2021/06/14 03:39:35;;;;;;;1999.90;999.90;;;;;;;11.48;75.77;93326.00;5067760;28;20417;-39
2021/06/14 03:42:01;;;;;;;1999.90;999.90;;;;;;;11.71;75.45;93331.50;5067937;28;20115;-41
2021/06/14 03:44:26;;;;;;;1999.90;999.90;;;;;;;11.69;75.41;93331.31;5068504;28;20028;-39
2021/06/14 03:46:52;;;;;;;1999.90;999.90;;;;;;;11.76;75.27;93320.22;5068755;28;20016;-39
2021/06/14 03:49:19;;;;;;;1999.90;999.90;;;;;;;11.74;75.14;93317.28;5069122;28;20117;-39
2021/06/14 03:51:44;;;;;;;1999.90;999.90;;;;;;;11.77;75.34;93315.44;5069195;28;20059;-39
2021/06/14 03:54:10;;;;;;;1999.90;999.90;;;;;;;11.76;75.13;93317.44;5069196;28;20017;-39
2021/06/14 03:56:36;;;;;;;1999.90;999.90;;;;;;;11.74;74.73;93328.34;5068665;28;20378;-38
2021/06/14 03:59:02;;;;;;;1999.90;999.90;;;;;;;11.73;74.50;93310.28;5068677;28;20060;-38
2021/06/14 04:01:28;;;;;;;1999.90;999.90;;;;;;;11.76;74.68;93314.69;5068705;28;20090;-38
2021/06/14 04:15:55;;;;;;;1999.90;999.90;;;;;;;12.79;69.96;93315.16;5107293;27;20518;-43
2021/06/14 04:18:20;;;;;;;1999.90;999.90;;;;;;;12.77;71.30;93312.97;5107285;28;20527;-42
2021/06/14 04:20:46;;;;;;;1999.90;999.90;;;;;;;12.50;72.01;93303.00;5107047;28;20473;-44
2021/06/14 04:23:11;;;;;;;1999.90;999.90;;;;;;;12.49;73.13;93301.56;5106731;28;20758;-42
2021/06/14 04:25:37;;;;;;;1999.90;999.90;;;;;;;12.57;73.14;93321.63;5106669;28;20039;-43
2021/06/14 04:28:06;;;;;;;1999.90;999.90;;;;;;;12.63;72.64;93327.66;5088716;28;20028;-42
2021/06/14 04:30:32;;;;;;;1999.90;999.90;;;;;;;12.79;71.56;93329.75;5086669;28;20036;-42
2021/06/14 04:32:57;;;;;;;1999.90;999.90;;;;;;;12.91;70.62;93327.25;5086536;28;20032;-41
2021/06/14 04:35:23;;;;;;;1999.90;999.90;;;;;;;12.93;71.29;93322.63;5086242;28;20023;-43
2021/06/14 04:37:48;;;;;;;1999.90;999.90;;;;;;;12.97;72.60;93325.00;5088275;28;20024;-41
2021/06/14 04:40:14;;;;;;;1999.90;999.90;;;;;;;13.14;72.58;93322.28;5106288;28;20028;-42
2021/06/14 04:42:39;;;;;;;1999.90;999.90;;;;;;;13.30;71.57;93315.28;5106645;28;20016;-42
2021/06/14 04:45:05;;;;;;;1999.90;999.90;;;;;;;13.42;70.08;93318.31;5106307;28;20015;-41
2021/06/14 04:47:31;;;;;;;1999.90;999.90;;;;;;;13.44;69.58;93322.00;5106683;28;20050;-42
2021/06/14 04:49:57;;;;;;;1999.90;999.90;;;;;;;13.56;69.61;93319.44;5094381;28;20028;-41
2021/06/14 04:52:23;;;;;;;1999.90;999.90;;;;;;;13.65;68.74;93327.13;5095890;28;20052;-42
2021/06/14 04:54:49;;;;;;;1999.90;999.90;;;;;;;13.66;68.10;93329.31;5092520;28;20046;-42
2021/06/14 04:57:14;;;;;;;1999.90;999.90;;;;;;;13.69;66.93;93338.53;5087746;28;20040;-41
2021/06/14 04:59:40;;;;;;;1999.90;999.90;;;;;;;13.55;66.92;93340.91;5106291;28;20081;-43
2021/06/14 05:02:05;;;;;;;1999.90;999.90;;;;;;;13.58;67.20;93339.75;5106011;28;20028;-44
2021/06/14 05:04:31;;;;;;;1999.90;999.90;;;;;;;13.67;65.59;93339.13;5106221;28;20016;-41
2021/06/14 05:06:57;;;;;;;1999.90;999.90;;;;;;;13.53;65.41;93335.22;5105975;28;20036;-41
2021/06/14 05:09:22;;;;;;;1999.90;999.90;;;;;;;13.53;66.43;93331.69;5102655;28;20135;-41
2021/06/14 05:11:48;;;;;;;1999.90;999.90;;;;;;;13.59;66.10;93338.47;5086446;28;20076;-42
2021/06/14 05:14:17;;;;;;;1999.90;999.90;;;;;;;13.55;67.56;93329.81;5105550;28;20032;-42
2021/06/14 05:16:43;;;;;;;1999.90;999.90;;;;;;;13.41;66.78;93314.06;5079042;28;20059;-42
2021/06/14 05:19:09;;;;;;;1999.90;999.90;;;;;;;13.53;67.02;93324.13;5071798;28;20038;-42
2021/06/14 05:21:35;;;;;;;1999.90;999.90;;;;;;;13.60;67.33;93328.09;5084582;28;20020;-43
2021/06/14 05:24:00;;;;;;;1999.90;999.90;;;;;;;13.69;66.45;93330.94;5086604;28;20477;-42
2021/06/14 05:26:26;;;;;;;1999.90;999.90;;;;;;;13.81;67.16;93342.28;5087435;28;20040;-43
2021/06/14 05:28:51;;;;;;;1999.90;999.90;;;;;;;13.97;68.00;93337.31;5071581;28;20025;-43
2021/06/14 05:31:16;;;;;;;1999.90;999.90;;;;;;;14.02;67.20;93342.59;5078848;28;20031;-45
2021/06/14 05:33:42;;;;;;;1999.90;999.90;;;;;;;14.18;67.30;93340.38;5091607;28;20028;-42
2021/06/14 05:36:08;;;;;;;1999.90;999.90;;;;;;;14.25;67.57;93347.88;5091737;28;20020;-43
2021/06/14 05:38:33;;;;;;;1999.90;999.90;;;;;;;14.35;66.72;93332.75;5091278;28;20453;-48
2021/06/14 05:40:59;;;;;;;1999.90;999.90;;;;;;;14.45;61.85;93335.56;5091198;28;20024;-41
2021/06/14 05:43:24;;;;;;;1999.90;999.90;;;;;;;14.43;63.36;93338.19;5090854;28;20020;-40
2021/06/14 05:45:50;;;;;;;1999.90;999.90;;;;;;;14.53;65.29;93338.97;5076882;28;20085;-40
2021/06/14 05:48:15;;;;;;;1999.90;999.90;;;;;;;14.64;66.88;93338.44;5070550;28;20039;-40
2021/06/14 05:50:41;;;;;;;1999.90;999.90;;;;;;;14.63;66.54;93334.22;5070990;28;20025;-42
2021/06/14 05:53:06;;;;;;;1999.90;999.90;;;;;;;14.66;67.19;93335.81;5070933;28;20031;-40
2021/06/14 05:55:32;;;;;;;1999.90;999.90;;;;;;;14.46;65.89;93331.50;5077383;28;20048;-40
2021/06/14 05:57:58;;;;;;;1999.90;999.90;;;;;;;14.42;64.26;93336.75;5076709;28;20060;-42
2021/06/14 06:00:23;;;;;;;1999.90;999.90;;;;;;;14.53;66.52;93319.53;5078334;28;20133;-41
2021/06/14 06:02:49;;;;;;;1999.90;999.90;;;;;;;14.55;65.94;93332.84;5078888;28;20024;-45
2021/06/14 06:05:14;;;;;;;1999.90;999.90;;;;;;;14.69;65.55;93329.09;5081529;28;20108;-44
2021/06/14 06:07:40;;;;;;;1999.90;999.90;;;;;;;14.70;65.89;93319.47;5078998;28;20416;-43
2021/06/14 06:10:08;;;;;;;1999.90;999.90;;;;;;;15.00;64.18;93343.28;5081073;28;20104;-44
2021/06/14 06:12:34;;;;;;;1999.90;999.90;;;;;;;15.04;64.78;93343.56;5081103;28;20036;-45
2021/06/14 06:15:01;;;;;;;1999.90;999.90;;;;;;;15.35;60.01;93339.00;5081033;28;20397;-47
2021/06/14 06:17:28;;;;;;;1999.90;999.90;;;;;;;15.54;58.11;93341.09;5083760;28;20619;-47
2021/06/14 06:19:53;;;;;;;1999.90;999.90;;;;;;;15.77;57.76;93344.16;5082159;28;20025;-42
2021/06/14 06:22:19;;;;;;;1999.90;999.90;;;;;;;16.05;56.40;93342.72;5079990;28;20386;-43
2021/06/14 06:24:44;;;;;;;1999.90;999.90;;;;;;;16.22;57.00;93350.91;5082681;28;20559;-43
2021/06/14 06:27:10;;;;;;;1999.90;999.90;;;;;;;16.38;56.92;93347.22;5068602;28;20032;-46
2021/06/14 06:29:35;;;;;;;1999.90;999.90;;;;;;;16.47;54.39;93354.09;5069631;28;20024;-43
2021/06/14 06:32:01;;;;;;;1999.90;999.90;;;;;;;16.37;53.02;93347.81;5069658;28;20031;-44
2021/06/14 06:34:26;;;;;;;1999.90;999.90;;;;;;;16.56;52.88;93347.81;5075857;28;20024;-48
2021/06/14 06:36:52;;;;;;;1999.90;999.90;;;;;;;16.68;52.05;93351.44;5079687;28;20073;-43
2021/06/14 06:39:17;;;;;;;1999.90;999.90;;;;;;;16.69;51.56;93350.13;5078848;28;20081;-44
2021/06/14 06:41:43;;;;;;;1999.90;999.90;;;;;;;16.82;51.81;93344.06;5080790;28;20027;-44
2021/06/14 06:44:09;;;;;;;1999.90;999.90;;;;;;;16.94;50.69;93346.94;5089643;28;20016;-48
2021/06/14 06:46:35;;;;;;;1999.90;999.90;;;;;;;17.05;50.26;93351.88;5082131;28;20063;-50
2021/06/14 06:49:00;;;;;;;1999.90;999.90;;;;;;;17.20;49.52;93349.47;5080916;28;20425;-44
2021/06/14 06:51:26;;;;;;;1999.90;999.90;;;;;;;17.18;48.87;93348.59;5081556;28;20032;-46
2021/06/14 06:54:10;;;;;;;1999.90;999.90;;;;;;;17.09;49.14;93346.56;5080420;28;20066;-46
2021/06/14 06:56:39;;;;;;;1999.90;999.90;;;;;;;16.99;47.96;93332.69;5076931;28;20444;-50
2021/06/14 06:59:05;;;;;;;1999.90;999.90;;;;;;;16.91;47.48;93342.56;5080094;28;20031;-44
2021/06/14 07:01:30;;;;;;;1999.90;999.90;;;;;;;16.98;49.24;93347.22;5078794;28;20591;-45
2021/06/14 07:03:56;;;;;;;1999.90;999.90;;;;;;;17.27;48.36;93345.03;5075012;28;20353;-43
2021/06/14 07:06:21;;;;;;;1999.90;999.90;;;;;;;17.50;46.88;93341.69;5075165;28;20066;-45
2021/06/14 07:08:47;;;;;;;1999.90;999.90;;;;;;;17.64;47.41;93345.44;5077745;28;20031;-46
2021/06/14 07:11:12;;;;;;;1999.90;999.90;;;;;;;17.78;47.26;93335.91;5085997;28;20674;-45
2021/06/14 07:13:38;;;;;;;1999.90;999.90;;;;;;;18.08;45.71;93339.97;5081815;28;20019;-44
2021/06/14 07:16:03;;;;;;;1999.90;999.90;;;;;;;18.03;45.52;93333.38;5077278;28;20032;-45
2021/06/14 07:18:29;;;;;;;1999.90;999.90;;;;;;;18.04;44.69;93336.91;5074712;28;20024;-45
2021/06/14 07:20:57;;;;;;;1999.90;999.90;;;;;;;18.06;46.24;93328.66;5074940;28;20033;-43
2021/06/14 07:23:22;;;;;;;1999.90;999.90;;;;;;;18.12;45.53;93337.44;5078277;28;20417;-46
2021/06/14 07:25:47;;;;;;;1999.90;999.90;;;;;;;18.26;46.03;93324.34;5075195;28;20028;-46
2021/06/14 07:28:13;;;;;;;1999.90;999.90;;;;;;;18.39;44.74;93329.38;5079620;28;20050;-45
2021/06/14 07:30:38;;;;;;;1999.90;999.90;;;;;;;18.53;44.21;93326.78;5075315;28;20439;-45
2021/06/14 07:33:04;;;;;;;1999.90;999.90;;;;;;;18.74;43.70;93327.44;5076998;28;20064;-46
2021/06/14 07:35:29;;;;;;;1999.90;999.90;;;;;;;18.71;42.95;93322.31;5082220;28;20115;-47
2021/06/14 07:37:55;;;;;;;1999.90;999.90;;;;;;;18.70;42.24;93318.06;5084836;28;20765;-47
2021/06/14 07:40:20;;;;;;;1999.90;999.90;;;;;;;18.49;44.21;93310.50;5072640;28;20170;-45
2021/06/14 07:42:46;;;;;;;1999.90;999.90;;;;;;;18.50;44.59;93333.56;5076480;28;20452;-47
2021/06/14 07:45:12;;;;;;;1999.90;999.90;;;;;;;18.41;44.00;93328.78;5074278;28;20013;-46
2021/06/14 07:47:37;;;;;;;1999.90;999.90;;;;;;;18.31;44.68;93322.53;5076164;28;20776;-46
2021/06/14 07:50:04;;;;;;;1999.90;999.90;;;;;;;18.34;44.76;93327.69;5075584;28;20020;-48
2021/06/14 07:52:30;;;;;;;1999.90;999.90;;;;;;;18.48;43.85;93319.47;5076213;28;20023;-45
2021/06/14 07:54:56;;;;;;;1999.90;999.90;;;;;;;18.86;42.68;93324.66;5076485;28;20019;-45
2021/06/14 07:57:21;;;;;;;1999.90;999.90;;;;;;;19.30;42.24;93321.00;5074524;28;20021;-44
2021/06/14 07:59:46;;;;;;;1999.90;999.90;;;;;;;19.77;41.31;93316.84;5072026;28;20059;-43
2021/06/14 08:02:12;;;;;;;1999.90;999.90;;;;;;;20.40;43.15;93315.53;5075560;28;20016;-45
2021/06/14 08:04:38;;;;;;;1999.90;999.90;;;;;;;20.72;39.76;93311.72;5072954;28;20016;-44
2021/06/14 08:07:03;;;;;;;1999.90;999.90;;;;;;;20.49;41.26;93319.53;5075310;28;20020;-44
2021/06/14 08:09:30;;;;;;;1999.90;999.90;;;;;;;19.98;42.49;93324.31;5073765;28;20465;-45
2021/06/14 08:11:58;;;;;;;1999.90;999.90;;;;;;;19.65;44.24;93330.13;5073800;28;20027;-45
2021/06/14 08:14:23;;;;;;;1999.90;999.90;;;;;;;19.45;44.13;93326.13;5075948;28;20131;-47
2021/06/14 08:16:49;;;;;;;1999.90;999.90;;;;;;;19.40;45.29;93318.84;5075810;28;20596;-45
2021/06/14 08:19:42;;;;;;;1999.90;999.90;;;;;;;19.25;45.26;93320.03;5075810;28;20031;-45
2021/06/14 08:27:28;;;;;;;1999.90;999.90;;;;;;;19.81;43.29;93322.66;5075687;28;20035;-45
2021/06/14 08:29:53;;;;;;;1999.90;999.90;;;;;;;19.77;44.03;93322.44;5073403;28;20024;-45
2021/06/14 08:32:19;;;;;;;1999.90;999.90;;;;;;;19.31;44.75;93319.66;5074328;28;20013;-44
2021/06/14 08:34:44;;;;;;;1999.90;999.90;;;;;;;19.08;44.54;93314.78;5075092;28;20020;-44
2021/06/14 08:37:10;;;;;;;1999.90;999.90;;;;;;;19.19;45.28;93314.06;5073591;28;20024;-44
2021/06/14 08:39:35;;;;;;;1999.90;999.90;;;;;;;19.26;45.55;93313.09;5075428;28;20020;-44
2021/06/14 08:42:01;;;;;;;1999.90;999.90;;;;;;;19.54;43.25;93314.06;5075381;28;20016;-45
2021/06/14 08:44:26;;;;;;;1999.90;999.90;;;;;;;19.56;42.66;93314.91;5072517;28;20017;-44
2021/06/14 08:46:54;;;;;;;1999.90;999.90;;;;;;;19.90;43.25;93316.19;5074156;28;20081;-46
2021/06/14 08:49:19;;;;;;;1999.90;999.90;;;;;;;20.02;41.33;93307.72;5076199;28;20020;-47
2021/06/14 08:51:45;;;;;;;1999.90;999.90;;;;;;;19.90;41.10;93319.00;5078960;28;20017;-44
2021/06/14 08:54:11;;;;;;;1999.90;999.90;;;;;;;19.68;40.89;93318.41;5077307;28;20044;-45
2021/06/14 08:56:36;;;;;;;1999.90;999.90;;;;;;;19.56;40.75;93320.53;5078739;28;20054;-46
2021/06/14 08:59:03;;;;;;;1999.90;999.90;;;;;;;19.48;41.83;93317.25;5078888;28;20017;-48
2021/06/14 09:01:29;;;;;;;1999.90;999.90;;;;;;;19.33;42.62;93314.94;5077201;28;20035;-45
2021/06/14 09:03:55;;;;;;;1999.90;999.90;;;;;;;20.16;42.07;93305.75;5078751;28;20077;-45
2021/06/14 09:06:21;;;;;;;1999.90;999.90;;;;;;;20.65;40.02;93309.19;5078819;28;20037;-44
2021/06/14 09:08:57;;;;;;;1999.90;999.90;;;;;;;20.37;39.59;93311.91;5075194;28;20133;-45
2021/06/14 09:11:24;;;;;;;1999.90;999.90;;;;;;;20.06;39.93;93319.16;5078541;28;20027;-45
2021/06/14 09:13:49;;;;;;;1999.90;999.90;;;;;;;19.65;41.06;93310.50;5078097;28;20032;-43
2021/06/14 09:16:16;;;;;;;1999.90;999.90;;;;;;;18.99;41.97;93307.28;5078413;28;20024;-43
2021/06/14 09:18:43;;;;;;;1999.90;999.90;;;;;;;18.72;42.51;93323.78;5076686;28;20027;-43
2021/06/14 09:21:16;;;;;;;1999.90;999.90;;;;;;;18.48;43.10;93319.47;5073752;28;20468;-42
2021/06/14 09:24:04;;;;;;;1999.90;999.90;;;;;;;18.06;44.11;93323.78;5078614;28;20145;-43
2021/06/14 09:26:33;;;;;;;1999.90;999.90;;;;;;;17.79;45.36;93326.22;5078512;28;20024;-43
2021/06/14 09:29:02;;;;;;;1999.90;999.90;;;;;;;17.65;46.65;93332.94;5077418;28;20103;-43
2021/06/14 09:31:29;;;;;;;1999.90;999.90;;;;;;;17.35;46.71;93326.78;5076522;28;20527;-42
2021/06/14 09:33:55;;;;;;;1999.90;999.90;;;;;;;17.30;46.23;93336.19;5076497;28;20036;-41
2021/06/14 09:36:22;;;;;;;1999.90;999.90;;;;;;;17.25;47.66;93336.53;5077588;28;20059;-41
2021/06/14 09:38:48;;;;;;;1999.90;999.90;;;;;;;17.30;47.88;93336.19;5076251;28;20032;-42
2021/06/14 09:41:15;;;;;;;1999.90;999.90;;;;;;;17.34;46.26;93336.47;5077585;28;20352;-41
2021/06/14 09:43:44;;;;;;;1999.90;999.90;;;;;;;17.30;47.18;93338.28;5079626;28;20408;-43
2021/06/14 09:46:31;;;;;;;1999.90;999.90;;;;;;;17.55;48.01;93340.63;5078423;28;20496;-43
2021/06/14 09:49:01;;;;;;;1999.90;999.90;;;;;;;17.56;48.13;93337.25;5075030;28;20063;-42
2021/06/14 09:51:29;;;;;;;1999.90;999.90;;;;;;;17.63;47.27;93330.03;5076424;28;20025;-43
2021/06/14 09:53:55;;;;;;;1999.90;999.90;;;;;;;17.61;46.14;93341.03;5077892;28;20135;-42
2021/06/14 09:56:25;;;;;;;1999.90;999.90;;;;;;;17.44;46.93;93339.22;5078177;28;20107;-43
2021/06/14 09:58:54;;;;;;;1999.90;999.90;;;;;;;17.21;48.73;93344.63;5076693;28;20127;-42
2021/06/14 10:01:39;;;;;;;1999.90;999.90;;;;;;;17.18;49.96;93348.59;5077373;28;20012;-43
2021/06/14 10:04:09;;;;;;;1999.90;999.90;;;;;;;17.19;50.84;93344.50;5075900;28;20464;-44
2021/06/14 10:06:37;;;;;;;1999.90;999.90;;;;;;;17.20;50.12;93345.94;5077872;28;20047;-44
2021/06/14 10:09:14;;;;;;;1999.90;999.90;;;;;;;17.02;51.24;93344.72;5078076;28;20023;-42
2021/06/14 10:11:43;;;;;;;1999.90;999.90;;;;;;;17.12;53.01;93354.50;5076799;28;20029;-43
2021/06/14 10:14:11;;;;;;;1999.90;999.90;;;;;;;17.25;53.35;93353.25;5077323;28;20072;-42
2021/06/14 10:16:37;;;;;;;1999.90;999.90;;;;;;;17.22;51.81;93334.91;5076280;28;20123;-42
2021/06/14 10:19:05;;;;;;;1999.90;999.90;;;;;;;17.53;49.02;93346.81;5076336;28;20111;-42
2021/06/14 10:21:35;;;;;;;1999.90;999.90;;;;;;;17.60;49.23;93345.91;5078415;28;20051;-41
2021/06/14 10:24:05;;;;;;;1999.90;999.90;;;;;;;17.65;49.02;93341.31;5080865;28;20031;-43
2021/06/14 10:26:32;;;;;;;1999.90;999.90;;;;;;;17.76;48.12;93335.06;5075345;28;20032;-45
2021/06/14 10:28:57;;;;;;;1999.90;999.90;;;;;;;18.00;45.83;93342.22;5081165;28;20801;-44
2021/06/14 10:31:24;;;;;;;1999.90;999.90;;;;;;;18.01;45.42;93341.63;5077418;28;20020;-44
2021/06/14 10:33:52;;;;;;;1999.90;999.90;;;;;;;18.14;46.16;93338.28;5075724;28;20055;-49
2021/06/14 10:36:22;;;;;;;1999.90;999.90;;;;;;;18.30;46.63;93337.88;5079627;28;20048;-43
2021/06/14 10:38:49;;;;;;;1999.90;999.90;;;;;;;18.71;45.78;93328.63;5077859;28;20016;-45
2021/06/14 10:41:15;;;;;;;1999.90;999.90;;;;;;;19.36;44.63;93324.22;5076144;28;20040;-45
2021/06/14 10:43:41;;;;;;;1999.90;999.90;;;;;;;19.88;43.38;93320.94;5076474;28;20024;-46
2021/06/14 10:46:09;;;;;;;1999.90;999.90;;;;;;;20.15;42.20;93318.28;5077495;28;20043;-45
2021/06/14 10:48:35;;;;;;;1999.90;999.90;;;;;;;20.10;40.72;93325.00;5074617;28;20115;-44
2021/06/14 10:51:03;;;;;;;1999.90;999.90;;;;;;;19.53;42.55;93330.13;5076448;28;20115;-44
2021/06/14 10:53:32;;;;;;;1999.90;999.90;;;;;;;19.38;42.65;93339.03;5074838;28;20478;-44
2021/06/14 10:56:00;;;;;;;;;;;;;;;18.96;44.87;93364.44;5081534;28;20024;-44
2021/06/14 10:58:28;;;;;;;1999.90;999.90;;;;;;;18.06;50.37;93368.50;5077419;28;19920;-47
2021/06/14 11:01:11;;;;;;;1999.90;999.90;;;;;;;17.45;52.43;93363.72;5075673;28;20029;-44
2021/06/14 11:03:42;;;;;;;1999.90;999.90;;;;;;;17.09;54.98;93355.69;5074791;28;20680;-44
2021/06/14 11:06:35;;;;;;;1999.90;999.90;;;;;;;16.86;57.05;93349.16;5075710;28;20823;-47
2021/06/14 11:09:13;;;;;;;1999.90;999.90;;;;;;;16.43;54.86;93345.47;5072680;28;20035;-47
2021/06/14 11:11:58;;;;;;;1999.90;999.90;;;;;;;16.36;57.36;93344.28;5075122;28;20417;-45
2021/06/14 11:14:37;;;;;;;1999.90;999.90;;;;;;;16.42;59.57;93338.41;5077149;28;20402;-45